Time;durP1;ratioP1;P1;durP2;ratioP2;P2;SDS_P1;SDS_P2;PMS_P1;PMS_P2;Temp;Humidity;BMP_temperature;BMP_pressure;BME280_temperature;BME280_humidity;BME280_pressure;Samples;Min_cycle;Max_cycle;Signal;HPM_P1;HPM_P2
2022/11/01 00:02:12;;;;;;;43.85;19.27;;;10.70;99.90;;;;;;5072849;28;19904;-78
2022/11/01 00:04:38;;;;;;;;;;;10.80;99.90;;;;;;5071192;28;20538;-77
2022/11/01 00:07:03;;;;;;;48.00;20.13;;;10.70;99.90;;;;;;5071406;28;19950;-78
2022/11/01 00:09:29;;;;;;;;;;;10.70;99.90;;;;;;5071412;28;20056;-78
2022/11/01 00:11:54;;;;;;;45.85;18.80;;;10.70;99.90;;;;;;5072735;28;19916;-78
2022/11/01 00:14:20;;;;;;;;;;;10.70;99.90;;;;;;5071672;28;20051;-78
2022/11/01 00:16:46;;;;;;;50.45;20.80;;;10.70;99.90;;;;;;5071358;28;19904;-77
2022/11/01 00:19:12;;;;;;;;;;;10.70;99.90;;;;;;5064227;28;20041;-78
2022/11/01 00:21:37;;;;;;;54.65;23.60;;;10.70;99.90;;;;;;5051126;28;19982;-77
2022/11/01 00:24:03;;;;;;;;;;;10.70;99.90;;;;;;5061050;28;20032;-77
2022/11/01 00:26:28;;;;;;;60.40;24.35;;;10.70;99.90;;;;;;5070983;28;19904;-78
2022/11/01 00:28:54;;;;;;;;;;;10.70;99.90;;;;;;5071247;28;20130;-78
2022/11/01 00:31:20;;;;;;;62.90;23.02;;;10.60;99.90;;;;;;5072456;28;20038;-77
2022/11/01 00:33:46;;;;;;;59.25;22.30;;;10.60;99.90;;;;;;5072381;28;20063;-77
2022/11/01 00:36:13;;;;;;;55.58;23.05;;;10.60;99.90;;;;;;5072306;28;20064;-77
2022/11/01 00:38:39;;;;;;;53.50;22.23;;;10.70;99.90;;;;;;5070831;28;20570;-77
2022/11/01 00:41:04;;;;;;;;;;;10.60;99.90;;;;;;5072901;28;20056;-77
2022/11/01 00:43:32;;;;;;;66.38;25.10;;;10.60;99.90;;;;;;5062133;28;20397;-77
2022/11/01 00:45:57;;;;;;;64.68;25.52;;;10.60;99.90;;;;;;5051017;28;20033;-77
2022/11/01 00:48:23;;;;;;;;;;;10.60;99.90;;;;;;5051298;28;20028;-77
2022/11/01 00:50:49;;;;;;;64.75;24.40;;;10.50;99.90;;;;;;5050583;28;20381;-78
2022/11/01 00:53:14;;;;;;;;;;;10.60;99.90;;;;;;5051302;28;20215;-77
2022/11/01 00:55:40;;;;;;;62.58;25.27;;;10.50;99.90;;;;;;5050461;28;20015;-78
2022/11/01 00:58:06;;;;;;;;;;;10.60;99.90;;;;;;5052272;28;20480;-77
2022/11/01 01:00:32;;;;;;;65.03;24.50;;;10.60;99.90;;;;;;5050264;28;20481;-76
2022/11/01 01:02:57;;;;;;;;;;;10.60;99.90;;;;;;5050238;28;20029;-77
2022/11/01 01:05:23;;;;;;;58.38;23.55;;;10.60;99.90;;;;;;5051490;28;19932;-77
2022/11/01 01:07:48;;;;;;;;;;;10.60;99.90;;;;;;5051953;28;20063;-77
2022/11/01 01:10:14;;;;;;;67.32;25.02;;;10.60;99.90;;;;;;5049698;28;20448;-78
2022/11/01 01:12:39;;;;;;;;;;;10.60;99.90;;;;;;5052376;28;20025;-77
2022/11/01 01:15:06;;;;;;;61.75;23.92;;;10.60;99.90;;;;;;5050725;28;19951;-78
2022/11/01 01:17:32;;;;;;;66.60;24.27;;;10.60;99.90;;;;;;5051816;28;20536;-78
2022/11/01 01:19:57;;;;;;;;;;;10.60;99.90;;;;;;5052520;28;20104;-77
2022/11/01 01:22:23;;;;;;;63.65;24.50;;;10.60;99.90;;;;;;5050157;28;19911;-77
2022/11/01 01:24:48;;;;;;;;;;;10.60;99.90;;;;;;5051893;28;20048;-77
2022/11/01 01:27:15;;;;;;;53.97;22.73;;;10.60;99.90;;;;;;5051800;28;19911;-77
2022/11/01 01:29:42;;;;;;;53.05;22.08;;;10.60;99.90;;;;;;5050310;28;20489;-77
2022/11/01 01:32:08;;;;;;;62.58;25.08;;;10.60;99.90;;;;;;5051096;28;20031;-77
2022/11/01 01:34:34;;;;;;;57.28;25.63;;;10.60;99.90;;;;;;5051114;28;20048;-77
2022/11/01 01:36:59;;;;;;;;;;;10.60;99.90;;;;;;5049924;28;20056;-77
2022/11/01 01:39:25;;;;;;;58.33;23.55;;;10.60;99.90;;;;;;5050826;28;19962;-77
2022/11/01 01:41:56;;;;;;;;;;;10.60;99.90;;;;;;5049872;28;20039;-77
2022/11/01 01:44:43;;;;;;;65.32;25.55;;;10.50;99.90;;;;;;5049499;28;20027;-77
2022/11/01 01:47:16;;;;;;;60.97;24.30;;;10.50;99.90;;;;;;5050779;28;20108;-77
2022/11/01 01:49:44;;;;;;;63.72;25.35;;;10.50;99.90;;;;;;5049529;28;20044;-77
2022/11/01 01:52:10;;;;;;;70.78;28.63;;;10.50;99.90;;;;;;5050726;28;20888;-76
2022/11/01 01:54:36;;;;;;;80.38;28.88;;;10.50;99.90;;;;;;5063505;28;20085;-77
2022/11/01 01:57:03;;;;;;;64.53;26.20;;;10.50;99.90;;;;;;5068882;28;20017;-77
2022/11/01 01:59:30;;;;;;;67.63;28.35;;;10.50;99.90;;;;;;5069212;28;20492;-77
2022/11/01 02:01:57;;;;;;;77.32;30.95;;;10.50;99.90;;;;;;5070401;28;20103;-77
2022/11/01 02:05:00;;;;;;;77.97;29.73;;;10.50;99.90;;;;;;5058462;28;20531;-78
2022/11/01 02:07:26;;;;;;;76.28;29.27;;;10.40;99.90;;;;;;5038884;28;20040;-77
2022/11/01 02:09:53;;;;;;;;;;;10.40;99.90;;;;;;5049214;28;20060;-77
2022/11/01 02:12:18;;;;;;;68.38;26.48;;;10.40;99.90;;;;;;5050217;28;20003;-77
2022/11/01 02:14:44;;;;;;;;;;;10.40;99.90;;;;;;5048740;28;20120;-77
2022/11/01 02:17:24;;;;;;;83.30;28.67;;;10.40;99.90;;;;;;5048840;28;19915;-76
2022/11/01 02:20:05;;;;;;;76.47;28.05;;;10.40;99.90;;;;;;5067305;28;20032;-77
2022/11/01 02:22:55;;;;;;;86.85;28.15;;;10.40;99.90;;;;;;5070239;28;20554;-77
2022/11/01 02:25:36;;;;;;;94.85;30.75;;;10.40;99.90;;;;;;5068714;28;20048;-77
2022/11/01 02:28:32;;;;;;;76.20;29.02;;;10.50;99.90;;;;;;5070072;28;20053;-76
2022/11/01 02:31:17;;;;;;;73.82;28.38;;;10.40;99.90;;;;;;5069719;28;20036;-78
2022/11/01 02:34:03;;;;;;;84.45;29.88;;;10.40;99.90;;;;;;5069802;28;20056;-77
2022/11/01 02:36:43;;;;;;;86.68;30.65;;;10.40;99.90;;;;;;5068921;28;20028;-78
2022/11/01 02:39:14;;;;;;;80.85;29.38;;;10.40;99.90;;;;;;5058858;28;20025;-78
2022/11/01 02:41:47;;;;;;;80.70;28.63;;;10.40;99.90;;;;;;5048522;28;20029;-77
2022/11/01 02:44:21;;;;;;;83.70;29.45;;;10.40;99.90;;;;;;5048186;28;20021;-77
2022/11/01 02:47:00;;;;;;;82.85;30.92;;;10.30;99.90;;;;;;5049699;28;20057;-77
2022/11/01 02:49:30;;;;;;;81.22;31.75;;;10.40;99.90;;;;;;5065284;28;20073;-77
2022/11/01 02:51:58;;;;;;;80.43;31.55;;;10.40;99.90;;;;;;5049709;28;20044;-77
2022/11/01 02:54:51;;;;;;;83.90;32.80;;;10.40;99.90;;;;;;5048333;28;20025;-77
2022/11/01 02:57:20;;;;;;;83.85;33.72;;;10.50;99.90;;;;;;5043891;28;20029;-78
2022/11/01 02:59:47;;;;;;;86.78;33.30;;;10.40;99.90;;;;;;5048411;28;20037;-78
2022/11/01 03:02:47;;;;;;;73.75;30.17;;;10.40;99.90;;;;;;5048025;28;20025;-77
2022/11/01 03:05:40;;;;;;;81.53;30.50;;;10.40;99.90;;;;;;5049459;28;20049;-78
2022/11/01 03:08:09;;;;;;;73.38;29.25;;;10.40;99.90;;;;;;5042058;28;20047;-77
2022/11/01 03:10:50;;;;;;;72.65;30.27;;;10.40;99.90;;;;;;5048311;28;20071;-78
2022/11/01 03:13:16;;;;;;;76.90;30.25;;;10.40;99.90;;;;;;5049787;28;20572;-77
2022/11/01 03:15:49;;;;;;;;;;;10.40;99.90;;;;;;5048925;28;20043;-77
2022/11/01 03:18:31;;;;;;;67.10;27.75;;;10.30;99.90;;;;;;5064801;28;19921;-77
2022/11/01 03:21:16;;;;;;;67.13;28.80;;;10.40;99.90;;;;;;5047857;28;20508;-77
2022/11/01 03:23:55;;;;;;;63.47;28.40;;;10.30;99.90;;;;;;5048318;28;20099;-78
2022/11/01 03:26:28;;;;;;;68.10;27.27;;;10.40;99.90;;;;;;5051105;28;20059;-77
2022/11/01 03:28:58;;;;;;;62.03;27.70;;;10.40;99.90;;;;;;5052367;28;20028;-78
2022/11/01 03:31:29;;;;;;;58.92;26.45;;;10.40;99.90;;;;;;5053654;28;20029;-77
2022/11/01 03:34:10;;;;;;;56.30;24.63;;;10.40;99.90;;;;;;5052233;28;20070;-76
2022/11/01 03:36:41;;;;;;;49.78;21.98;;;10.30;99.90;;;;;;5053818;28;20028;-77
2022/11/01 03:39:32;;;;;;;57.90;25.48;;;10.30;99.90;;;;;;5066783;28;20083;-77
2022/11/01 03:42:03;;;;;;;62.80;27.05;;;10.30;99.90;;;;;;5053483;28;20179;-77
2022/11/01 03:44:42;;;;;;;62.70;24.92;;;10.30;99.90;;;;;;5052270;28;20037;-77
2022/11/01 03:47:09;;;;;;;57.88;25.42;;;10.30;99.90;;;;;;5052800;28;20028;-77
2022/11/01 03:49:34;;;;;;;54.60;25.15;;;10.30;99.90;;;;;;5056919;28;20097;-78
2022/11/01 03:52:00;;;;;;;;;;;10.30;99.90;;;;;;5071662;28;20028;-77
2022/11/01 03:54:27;;;;;;;63.95;24.58;;;10.30;99.90;;;;;;5060411;28;19999;-77
2022/11/01 03:56:53;;;;;;;66.00;25.95;;;10.10;99.90;;;;;;5066172;28;20174;-77
2022/11/01 03:59:19;;;;;;;;;;;10.30;99.90;;;;;;5072183;28;20111;-77
2022/11/01 04:01:44;;;;;;;56.13;22.08;;;10.20;99.90;;;;;;5074526;28;19965;-77
2022/11/01 04:04:10;;;;;;;;;;;10.20;99.90;;;;;;5072001;28;20504;-76
2022/11/01 04:06:35;;;;;;;50.45;20.33;;;10.30;99.90;;;;;;5072715;28;19994;-76
2022/11/01 04:09:01;;;;;;;;;;;10.20;99.90;;;;;;5066045;28;20493;-77
2022/11/01 04:11:27;;;;;;;49.38;19.33;;;10.20;99.90;;;;;;5057528;28;19908;-77
2022/11/01 04:20:31;;;;;;;;;;;10.20;99.90;;;;;;5071473;28;20060;-77
2022/11/01 04:22:06;;;;;;;49.08;20.60;;;10.20;99.90;;;;;;5072588;28;20446;-76
2022/11/01 04:24:31;;;;;;;;;;;10.20;99.90;;;;;;5072594;28;20028;-77
2022/11/01 04:26:58;;;;;;;57.40;21.70;;;10.20;99.90;;;;;;5070953;28;19916;-76
2022/11/01 04:29:24;;;;;;;51.15;19.98;;;10.30;99.90;;;;;;5070931;28;20131;-77
2022/11/01 04:31:50;;;;;;;;;;;10.20;99.90;;;;;;5053593;28;20104;-77
2022/11/01 04:34:41;;;;;;;51.88;18.95;;;10.10;99.90;;;;;;5050383;28;19977;-76
2022/11/01 04:37:01;;;;;;;54.60;18.27;;;10.20;99.90;;;;;;5061570;28;20025;-77
2022/11/01 04:39:26;;;;;;;;;;;10.20;99.90;;;;;;5051306;28;20405;-77
2022/11/01 04:41:52;;;;;;;46.20;18.75;;;10.20;99.90;;;;;;5050880;28;20003;-76
2022/11/01 04:44:17;;;;;;;;;;;10.20;99.90;;;;;;5051411;28;20503;-77
2022/11/01 04:46:43;;;;;;;49.60;19.67;;;10.20;99.90;;;;;;5051910;28;19912;-77
2022/11/01 04:49:08;;;;;;;;;;;10.20;99.90;;;;;;5051267;28;20033;-77
2022/11/01 04:51:34;;;;;;;46.70;18.42;;;10.20;99.90;;;;;;5050735;28;19915;-77
2022/11/01 04:53:59;;;;;;;;;;;10.20;99.90;;;;;;5050866;28;20021;-76
2022/11/01 04:56:25;;;;;;;49.33;20.95;;;10.30;99.90;;;;;;5050355;28;20296;-77
2022/11/01 04:58:50;;;;;;;;;;;10.20;99.90;;;;;;5050953;28;20083;-77
2022/11/01 05:01:16;;;;;;;52.58;19.48;;;10.20;99.90;;;;;;5051914;28;19965;-76
2022/11/01 05:03:42;;;;;;;;;;;10.30;99.90;;;;;;5052251;28;20025;-77
2022/11/01 05:06:08;;;;;;;47.33;19.10;;;10.20;99.90;;;;;;5051839;28;19919;-76
2022/11/01 05:08:33;;;;;;;;;;;10.30;99.90;;;;;;5053084;28;20682;-76
2022/11/01 05:10:59;;;;;;;49.78;20.80;;;10.20;99.90;;;;;;5052781;28;19932;-77
2022/11/01 05:13:24;;;;;;;;;;;10.20;99.90;;;;;;5062717;28;20028;-77
2022/11/01 05:15:50;;;;;;;50.75;20.35;;;10.20;99.90;;;;;;5060363;28;19963;-76
2022/11/01 05:18:16;;;;;;;;;;;10.20;99.90;;;;;;5059105;28;20025;-76
2022/11/01 05:20:41;;;;;;;55.58;21.27;;;10.20;99.90;;;;;;5067833;28;19908;-77
2022/11/01 05:23:07;;;;;;;;;;;10.20;99.90;;;;;;5071840;28;20036;-77
2022/11/01 05:25:33;;;;;;;49.50;20.95;;;10.20;99.90;;;;;;5071312;28;20395;-77
2022/11/01 05:28:08;;;;;;;50.97;21.98;;;10.20;99.90;;;;;;5071340;28;20035;-77
2022/11/01 05:30:35;;;;;;;53.25;22.75;;;10.20;99.90;;;;;;5063841;28;20068;-76
2022/11/01 05:33:02;;;;;;;56.08;22.38;;;10.30;99.90;;;;;;5051232;28;20025;-77
2022/11/01 05:35:29;;;;;;;56.15;23.58;;;10.30;99.90;;;;;;5049764;28;20063;-77
2022/11/01 05:37:55;;;;;;;54.47;21.83;;;10.30;99.90;;;;;;5050087;28;20068;-77
2022/11/01 05:40:21;;;;;;;53.55;22.27;;;10.30;99.90;;;;;;5051692;28;20115;-77
2022/11/01 05:42:47;;;;;;;44.72;22.00;;;10.20;99.90;;;;;;5057965;28;20025;-77
2022/11/01 05:45:12;;;;;;;;;;;10.30;99.90;;;;;;5062595;28;20035;-77
2022/11/01 05:47:41;;;;;;;51.10;21.48;;;10.30;99.90;;;;;;5053231;28;19909;-77
2022/11/01 05:50:11;;;;;;;44.45;20.67;;;10.20;99.90;;;;;;5059035;28;20092;-77
2022/11/01 05:52:37;;;;;;;40.55;19.35;;;10.30;99.90;;;;;;5058775;28;20021;-77
2022/11/01 05:55:03;;;;;;;;;;;10.30;99.90;;;;;;5067740;28;20035;-77
2022/11/01 05:57:29;;;;;;;43.47;20.58;;;10.30;99.90;;;;;;5053718;28;19917;-77
2022/11/01 05:59:54;;;;;;;;;;;10.30;99.90;;;;;;5062872;28;20069;-77
2022/11/01 06:02:20;;;;;;;37.97;17.70;;;10.30;99.90;;;;;;5050217;28;20003;-77
2022/11/01 06:04:45;;;;;;;;;;;10.30;99.90;;;;;;5051351;28;20033;-77
2022/11/01 06:07:11;;;;;;;37.63;16.90;;;10.30;99.90;;;;;;5049973;28;19920;-76
2022/11/01 06:09:36;;;;;;;;;;;10.40;99.90;;;;;;5071158;28;20088;-77
2022/11/01 06:12:03;;;;;;;37.20;16.52;;;10.40;99.90;;;;;;5066429;28;19909;-77
2022/11/01 06:14:28;;;;;;;37.72;18.52;;;10.40;99.90;;;;;;5048943;28;20021;-77
2022/11/01 06:16:54;;;;;;;;;;;10.40;99.90;;;;;;5063952;28;20497;-77
2022/11/01 06:19:19;;;;;;;51.85;24.83;;;10.40;99.90;;;;;;5070168;28;19947;-77
2022/11/01 06:21:45;;;;;;;;;;;10.50;99.90;;;;;;5053830;28;20041;-77
2022/11/01 06:24:11;;;;;;;32.55;17.38;;;10.40;99.90;;;;;;5048831;28;19915;-77
2022/11/01 06:26:36;;;;;;;;;;;10.40;99.90;;;;;;5050247;28;20033;-77
2022/11/01 06:29:03;;;;;;;35.25;18.58;;;10.40;99.90;;;;;;5050765;28;19919;-77
2022/11/01 06:31:29;;;;;;;34.83;18.15;;;10.40;99.90;;;;;;5068723;28;20416;-77
2022/11/01 06:33:54;;;;;;;;;;;10.40;99.90;;;;;;5059139;28;20025;-76
2022/11/01 06:36:21;;;;;;;34.72;17.55;;;10.50;99.90;;;;;;5049983;28;19912;-76
2022/11/01 06:38:47;;;;;;;41.95;21.50;;;10.50;99.90;;;;;;5048693;28;20036;-76
2022/11/01 06:41:12;;;;;;;;;;;10.60;99.90;;;;;;5050237;28;20131;-76
2022/11/01 06:43:38;;;;;;;37.97;14.88;;;10.50;99.90;;;;;;5060240;28;19921;-76
2022/11/01 06:46:03;;;;;;;;;;;10.50;99.90;;;;;;5063402;28;20087;-76
2022/11/01 06:48:29;;;;;;;29.70;13.95;;;10.50;99.90;;;;;;5055065;28;19912;-76
2022/11/01 06:50:54;;;;;;;;;;;10.50;99.90;;;;;;5066955;28;20222;-76
2022/11/01 06:53:22;;;;;;;34.70;14.95;;;10.50;99.90;;;;;;5048508;28;19913;-77
2022/11/01 06:55:48;;;;;;;29.98;12.55;;;10.60;99.90;;;;;;5049954;28;20033;-77
2022/11/01 06:58:13;;;;;;;;;;;10.50;99.90;;;;;;5053054;28;20025;-76
2022/11/01 07:00:39;;;;;;;28.58;12.00;;;10.60;99.90;;;;;;5053236;28;19948;-77
2022/11/01 07:03:05;;;;;;;;;;;10.50;99.90;;;;;;5058873;28;20144;-77
2022/11/01 07:05:33;;;;;;;25.45;12.02;;;10.50;99.90;;;;;;5050272;28;19975;-77
2022/11/01 07:07:59;;;;;;;22.27;11.10;;;10.60;99.90;;;;;;5061490;28;20055;-77
2022/11/01 07:10:27;;;;;;;27.98;12.88;;;10.50;99.90;;;;;;5058758;28;20192;-77
2022/11/01 07:12:59;;;;;;;32.83;16.63;;;10.60;99.90;;;;;;5068982;28;20037;-76
2022/11/01 07:15:25;;;;;;;39.92;17.95;;;10.70;99.90;;;;;;5066900;28;20215;-75
2022/11/01 07:17:58;;;;;;;;;;;10.60;99.90;;;;;;5066871;28;20032;-76
2022/11/01 07:20:24;;;;;;;51.72;24.60;;;10.60;99.90;;;;;;5051929;28;19913;-76
2022/11/01 07:23:01;;;;;;;60.05;25.67;;;10.60;99.90;;;;;;5055268;28;20021;-76
2022/11/01 07:25:28;;;;;;;53.55;24.75;;;10.70;99.90;;;;;;5054708;28;20033;-76
2022/11/01 07:27:53;;;;;;;44.45;22.92;;;10.60;99.90;;;;;;5059294;28;20025;-76
2022/11/01 07:30:20;;;;;;;;;;;10.60;99.90;;;;;;5060207;28;20033;-76
2022/11/01 07:32:45;;;;;;;45.33;23.83;;;10.70;99.90;;;;;;5057625;28;19931;-75
2022/11/01 07:35:11;;;;;;;;;;;10.70;99.90;;;;;;5069180;28;20409;-76
2022/11/01 07:37:36;;;;;;;41.58;22.10;;;10.70;99.90;;;;;;5069482;28;20272;-77
2022/11/01 07:40:02;;;;;;;;;;;10.80;99.90;;;;;;5070327;28;20043;-76
2022/11/01 07:42:29;;;;;;;51.40;23.13;;;10.70;99.90;;;;;;5068193;28;19913;-76
2022/11/01 07:44:54;;;;;;;49.47;24.95;;;10.80;99.90;;;;;;5068449;28;20056;-76
2022/11/01 07:47:20;;;;;;;;;;;10.80;99.90;;;;;;5069727;28;20056;-76
2022/11/01 07:49:46;;;;;;;57.00;27.60;;;10.80;99.90;;;;;;5067870;28;19920;-75
2022/11/01 07:52:13;;;;;;;53.20;26.02;;;10.80;99.90;;;;;;5067885;28;20083;-76
2022/11/01 07:54:39;;;;;;;58.50;27.13;;;10.80;99.90;;;;;;5067591;28;20021;-75
2022/11/01 07:57:04;;;;;;;;;;;10.80;99.90;;;;;;5068274;28;20039;-77
2022/11/01 07:59:30;;;;;;;48.17;26.70;;;10.90;99.90;;;;;;5068868;28;20685;-74
2022/11/01 08:01:55;;;;;;;;;;;10.90;99.90;;;;;;5068125;28;20404;-77
2022/11/01 08:04:21;;;;;;;37.47;21.55;;;11.00;99.90;;;;;;5069250;28;19954;-75
2022/11/01 08:06:46;;;;;;;;;;;11.00;99.90;;;;;;5068957;28;20086;-75
2022/11/01 08:09:12;;;;;;;41.20;21.13;;;11.00;99.90;;;;;;5067793;28;19962;-76
2022/11/01 08:11:37;;;;;;;;;;;11.00;99.90;;;;;;5068181;28;20047;-76
2022/11/01 08:14:03;;;;;;;52.80;27.00;;;11.00;99.90;;;;;;5070577;28;19908;-77
2022/11/01 08:16:28;;;;;;;;;;;11.10;99.90;;;;;;5072651;28;20025;-75
2022/11/01 08:18:54;;;;;;;48.47;24.85;;;11.00;99.90;;;;;;5075439;28;19931;-76
2022/11/01 08:21:20;;;;;;;;;;;11.00;99.90;;;;;;5072552;28;20039;-75
2022/11/01 08:23:45;;;;;;;50.70;24.30;;;11.10;99.90;;;;;;5071537;28;19919;-75
2022/11/01 08:26:11;;;;;;;;;;;11.10;99.90;;;;;;5071360;28;20561;-76
2022/11/01 08:28:37;;;;;;;44.28;23.02;;;11.20;99.90;;;;;;5071419;28;19908;-75
2022/11/01 08:31:08;;;;;;;45.72;23.80;;;11.20;99.90;;;;;;5070913;28;20115;-75
2022/11/01 08:33:34;;;;;;;47.38;25.40;;;11.20;99.90;;;;;;5072456;28;20098;-75
2022/11/01 08:35:59;;;;;;;;;;;11.30;99.90;;;;;;5072583;28;20071;-75
2022/11/01 08:38:26;;;;;;;42.30;23.33;;;11.30;99.90;;;;;;5063975;28;19940;-76
2022/11/01 08:40:52;;;;;;;41.50;25.23;;;11.20;99.90;;;;;;5065801;28;20047;-76
2022/11/01 08:43:17;;;;;;;;;;;11.20;99.90;;;;;;5072373;28;20484;-76
2022/11/01 08:45:43;;;;;;;50.08;25.50;;;11.20;99.90;;;;;;5060426;28;19931;-76
2022/11/01 08:48:09;;;;;;;;;;;11.30;99.90;;;;;;5059687;28;20374;-76
2022/11/01 08:50:35;;;;;;;56.15;27.35;;;11.30;99.90;;;;;;5051614;28;19942;-77
2022/11/01 08:53:08;;;;;;;53.15;27.20;;;11.30;99.90;;;;;;5051733;28;20354;-75
2022/11/01 08:55:35;;;;;;;51.97;26.63;;;11.30;99.90;;;;;;5051671;28;20643;-77
2022/11/01 08:58:00;;;;;;;51.95;27.23;;;11.20;99.90;;;;;;5051832;28;20031;-76
2022/11/01 09:00:26;;;;;;;;;;;11.20;99.90;;;;;;5058044;28;20017;-76
2022/11/01 09:02:52;;;;;;;49.88;25.15;;;11.20;99.90;;;;;;5056426;28;19982;-76
2022/11/01 09:05:18;;;;;;;;;;;11.20;99.90;;;;;;5050586;28;20025;-77
2022/11/01 09:07:43;;;;;;;38.00;22.08;;;11.30;99.90;;;;;;5050463;28;19909;-76
2022/11/01 09:10:09;;;;;;;;;;;11.20;99.90;;;;;;5050094;28;20060;-76
2022/11/01 09:12:35;;;;;;;35.42;20.08;;;11.20;99.90;;;;;;5051319;28;19944;-76
2022/11/01 09:15:02;;;;;;;31.85;18.38;;;11.20;99.90;;;;;;5050312;28;20025;-76
2022/11/01 09:17:27;;;;;;;44.00;21.42;;;11.20;99.90;;;;;;5051301;28;20021;-77
2022/11/01 09:19:53;;;;;;;;;;;11.20;99.90;;;;;;5050393;28;20028;-77
2022/11/01 09:22:19;;;;;;;30.70;18.27;;;11.30;99.90;;;;;;5051323;28;20749;-76
2022/11/01 09:24:44;;;;;;;;;;;11.30;99.90;;;;;;5051209;28;20115;-76
2022/11/01 09:27:10;;;;;;;29.63;16.65;;;11.30;99.90;;;;;;5049036;28;19982;-77
2022/11/01 09:29:35;;;;;;;;;;;11.30;99.90;;;;;;5051887;28;20045;-76
2022/11/01 09:32:01;;;;;;;45.28;23.98;;;11.30;99.90;;;;;;5062249;28;19911;-76
2022/11/01 09:34:26;;;;;;;;;;;11.40;99.90;;;;;;5050116;28;20404;-76
2022/11/01 09:36:52;;;;;;;49.60;27.10;;;11.40;99.90;;;;;;5049662;28;19919;-76
2022/11/01 09:39:20;;;;;;;;;;;11.40;99.90;;;;;;5051450;28;20021;-76
2022/11/01 09:41:55;;;;;;;40.83;21.92;;;11.50;99.90;;;;;;5051062;28;19930;-77
2022/11/01 09:44:29;;;;;;;44.22;27.55;;;11.40;99.90;;;;;;5050950;28;20048;-77
2022/11/01 09:46:59;;;;;;;40.72;24.38;;;11.50;99.90;;;;;;5050829;28;20023;-76
2022/11/01 09:49:37;;;;;;;54.97;29.25;;;11.60;99.90;;;;;;5062252;28;20036;-76
2022/11/01 09:52:04;;;;;;;61.05;37.10;;;11.60;99.90;;;;;;5064555;28;20131;-77
2022/11/01 09:54:31;;;;;;;72.05;45.90;;;11.70;99.90;;;;;;5070679;28;20035;-76
2022/11/01 09:57:14;;;;;;;58.58;36.17;;;11.50;99.90;;;;;;5068967;28;20621;-76
2022/11/01 10:00:02;;;;;;;50.63;29.85;;;11.50;99.90;;;;;;5070404;28;20031;-76
2022/11/01 10:03:06;;;;;;;48.85;29.95;;;11.50;99.90;;;;;;5070521;28;20028;-76
2022/11/01 10:05:51;;;;;;;44.28;28.58;;;11.60;99.90;;;;;;5068579;28;20052;-76
2022/11/01 10:08:33;;;;;;;41.38;26.00;;;11.60;99.90;;;;;;5070275;28;20027;-76
2022/11/01 10:11:13;;;;;;;44.53;27.75;;;11.60;99.90;;;;;;5068351;28;20056;-76
2022/11/01 10:14:06;;;;;;;54.15;30.08;;;11.70;99.90;;;;;;5070094;28;20532;-76
2022/11/01 10:16:44;;;;;;;48.35;25.15;;;11.70;99.90;;;;;;5069580;28;20017;-76
2022/11/01 10:19:16;;;;;;;51.78;31.23;;;11.70;99.90;;;;;;5068587;28;20443;-76
2022/11/01 10:21:53;;;;;;;57.30;31.80;;;11.70;99.90;;;;;;5070271;28;20409;-75
2022/11/01 10:24:33;;;;;;;59.67;29.98;;;11.70;99.90;;;;;;5068403;28;20126;-76
2022/11/01 10:27:06;;;;;;;49.83;30.98;;;11.70;99.90;;;;;;5068353;28;20029;-76
2022/11/01 10:30:02;;;;;;;60.10;32.17;;;11.70;99.90;;;;;;5068473;28;20104;-76
2022/11/01 10:32:51;;;;;;;52.95;27.85;;;11.80;99.90;;;;;;5063600;28;20032;-76
2022/11/01 10:35:40;;;;;;;50.15;30.70;;;11.80;99.90;;;;;;5069193;28;20024;-75
2022/11/01 10:38:30;;;;;;;47.80;29.30;;;11.70;99.90;;;;;;5069665;28;20040;-76
2022/11/01 10:41:05;;;;;;;55.47;30.05;;;11.80;99.90;;;;;;5068377;28;20064;-76
2022/11/01 10:43:45;;;;;;;47.63;29.25;;;11.80;99.90;;;;;;5069732;28;20032;-75
2022/11/01 10:46:18;;;;;;;58.00;28.48;;;11.90;99.90;;;;;;5068108;28;20039;-77
2022/11/01 10:48:51;;;;;;;55.67;31.20;;;11.80;99.90;;;;;;5069929;28;20033;-77
2022/11/01 10:51:21;;;;;;;57.80;30.48;;;11.80;99.90;;;;;;5068879;28;20412;-76
2022/11/01 10:53:53;;;;;;;69.93;34.30;;;11.90;99.90;;;;;;5068073;28;20493;-76
2022/11/01 10:56:25;;;;;;;61.10;33.13;;;11.80;99.90;;;;;;5067456;28;20116;-76
2022/11/01 10:59:26;;;;;;;65.65;31.65;;;11.70;99.90;;;;;;5069151;28;20505;-76
2022/11/01 11:01:53;;;;;;;65.07;33.20;;;11.90;99.90;;;;;;5067871;28;20543;-76
2022/11/01 11:04:23;;;;;;;69.53;34.10;;;11.80;99.90;;;;;;5069057;28;20074;-76
2022/11/01 11:06:50;;;;;;;66.20;32.00;;;11.80;99.90;;;;;;5068932;28;20025;-77
2022/11/01 11:09:33;;;;;;;68.70;33.80;;;11.80;99.90;;;;;;5068952;28;20044;-77
2022/11/01 11:12:02;;;;;;;58.17;30.08;;;11.70;99.90;;;;;;5068796;28;20396;-77
2022/11/01 11:14:30;;;;;;;76.45;29.77;;;11.80;99.90;;;;;;5067694;28;20029;-77
2022/11/01 11:16:57;;;;;;;74.82;33.47;;;11.80;99.90;;;;;;5068994;28;20036;-76
2022/11/01 11:19:34;;;;;;;84.75;31.55;;;11.80;99.90;;;;;;5068632;28;20033;-77
2022/11/01 11:22:04;;;;;;;77.18;33.03;;;11.80;99.90;;;;;;5067722;28;20501;-77
2022/11/01 11:24:35;;;;;;;74.93;34.75;;;11.80;99.90;;;;;;5069156;28;20103;-77
2022/11/01 11:27:03;;;;;;;68.05;30.83;;;11.80;99.90;;;;;;5069112;28;20028;-77
2022/11/01 11:29:38;;;;;;;73.60;32.47;;;11.70;99.90;;;;;;5069050;28;20112;-77
2022/11/01 11:32:13;;;;;;;75.97;31.58;;;11.80;99.90;;;;;;5069274;28;20036;-76
2022/11/01 11:34:40;;;;;;;68.45;32.80;;;11.80;99.90;;;;;;5069259;28;20032;-76
2022/11/01 11:37:13;;;;;;;60.38;27.33;;;11.70;99.90;;;;;;5068287;28;20115;-77
2022/11/01 11:39:39;;;;;;;64.50;29.95;;;11.70;99.90;;;;;;5067775;28;20086;-77
2022/11/01 11:42:17;;;;;;;63.05;27.45;;;11.80;99.90;;;;;;5067709;28;20471;-76
2022/11/01 11:44:49;;;;;;;62.03;27.85;;;11.70;99.90;;;;;;5069216;28;20032;-76
2022/11/01 11:47:23;;;;;;;55.45;26.60;;;11.70;99.90;;;;;;5070090;28;20374;-76
2022/11/01 11:49:52;;;;;;;54.13;26.75;;;11.80;99.90;;;;;;5072881;28;20025;-77
2022/11/01 11:52:21;;;;;;;48.10;25.77;;;11.90;99.90;;;;;;5071624;28;20029;-77
2022/11/01 11:54:47;;;;;;;52.63;25.92;;;12.00;99.90;;;;;;5072666;28;20032;-76
2022/11/01 11:57:19;;;;;;;55.33;28.38;;;12.10;99.90;;;;;;5072896;28;20051;-77
2022/11/01 11:59:51;;;;;;;63.40;31.63;;;12.10;99.90;;;;;;5071517;28;20036;-78
2022/11/01 12:02:21;;;;;;;72.70;33.55;;;12.20;99.90;;;;;;5072403;28;20500;-77
2022/11/01 12:05:02;;;;;;;71.60;34.42;;;12.20;99.90;;;;;;5071274;28;20040;-77
2022/11/01 12:07:33;;;;;;;57.97;27.83;;;12.20;99.90;;;;;;5072631;28;20051;-77
2022/11/01 12:10:02;;;;;;;65.85;32.33;;;12.30;99.90;;;;;;5072426;28;20059;-76
2022/11/01 12:12:31;;;;;;;69.18;31.20;;;12.30;99.90;;;;;;5072813;28;20503;-76
2022/11/01 12:14:58;;;;;;;55.90;25.77;;;12.20;99.90;;;;;;5071088;28;20037;-76
2022/11/01 12:17:30;;;;;;;58.92;27.58;;;12.20;99.90;;;;;;5072641;28;20025;-76
2022/11/01 12:20:21;;;;;;;68.75;31.27;;;12.20;99.90;;;;;;5072433;28;20029;-77
2022/11/01 12:22:58;;;;;;;58.88;29.85;;;12.20;99.90;;;;;;5070686;28;20029;-77
2022/11/01 12:25:24;;;;;;;50.88;28.13;;;12.20;99.90;;;;;;5072162;28;20495;-76
2022/11/01 12:27:54;;;;;;;;;;;12.10;99.90;;;;;;5072448;28;20029;-76
2022/11/01 12:30:23;;;;;;;52.13;25.45;;;12.10;99.90;;;;;;5072025;28;19912;-77
2022/11/01 12:32:56;;;;;;;45.33;25.25;;;12.20;99.90;;;;;;5070614;28;20031;-77
2022/11/01 12:35:43;;;;;;;46.33;25.33;;;12.20;99.90;;;;;;5072059;28;20111;-77
2022/11/01 12:38:48;;;;;;;48.97;25.63;;;12.20;99.90;;;;;;5071774;28;20508;-77
2022/11/01 12:41:27;;;;;;;47.00;25.02;;;12.20;99.90;;;;;;5071988;28;20028;-77
2022/11/01 12:44:14;;;;;;;45.72;23.92;;;12.10;99.90;;;;;;5072182;28;20032;-76
2022/11/01 12:46:45;;;;;;;48.85;23.73;;;12.20;99.90;;;;;;5071611;28;20028;-76
2022/11/01 12:49:28;;;;;;;50.60;26.50;;;12.20;99.90;;;;;;5071866;28;20112;-75
2022/11/01 12:52:00;;;;;;;44.08;23.98;;;12.30;99.90;;;;;;5071731;28;20108;-77
2022/11/01 12:54:39;;;;;;;43.42;23.73;;;12.30;99.90;;;;;;5071634;28;20078;-77
2022/11/01 12:57:14;;;;;;;44.85;23.77;;;12.40;99.90;;;;;;5071905;28;20682;-77
2022/11/01 12:59:41;;;;;;;49.88;24.88;;;12.30;99.90;;;;;;5071038;28;20021;-77
2022/11/01 13:02:06;;;;;;;50.17;24.58;;;12.40;99.90;;;;;;5071604;28;20513;-78
2022/11/01 13:04:35;;;;;;;;;;;12.40;99.90;;;;;;5070825;28;20031;-77
2022/11/01 13:07:03;;;;;;;39.88;22.95;;;12.40;99.90;;;;;;5071424;28;20434;-76
2022/11/01 13:09:48;;;;;;;41.15;22.95;;;12.40;99.90;;;;;;5069849;28;20033;-77
2022/11/01 13:12:29;;;;;;;43.85;22.08;;;12.50;99.90;;;;;;5070104;28;20028;-75